Terminal Aerodrome Forecast
Issued by NWS

Home | Current Version | Previous Version | Text Only | Print | Product List | Glossary On
Versions: 1 2 3 4 5 6 7 8 9 10 11 12 13 14
000
FTAK31 PAJN 250500
TAFAWG
TAF
PAWG 250534Z 2506/2606 VRB03KT P6SM VCSH FEW015 SCT020 OVC040
     FM250800 VRB05KT P6SM BKN020
     FM251000 28005KT P6SM OVC010
     FM251900 28006KT P6SM BKN020
     FM252200 28006KT P6SM SCT025
      AMD LTD TO CLD VIS AND WIND 2506/2515=

USA.gov is the U.S. government's official web portal to all federal, state and local government web resources and services.